Time;durP1;ratioP1;P1;durP2;ratioP2;P2;SDS_P1;SDS_P2;PMS_P1;PMS_P2;Temp;Humidity;BMP_temperature;BMP_pressure;BME280_temperature;BME280_humidity;BME280_pressure;Samples;Min_cycle;Max_cycle;Signal;HPM_P1;HPM_P2
2021/06/16 05:03:48;;;;;;;6.03;3.47;;;;;;;24.71;50.41;98529.23;1686538;83;21103;-59
2021/06/16 05:06:16;;;;;;;5.90;3.80;;;;;;;24.53;49.40;98526.98;1674021;85;21134;-64
2021/06/16 05:08:45;;;;;;;9.30;3.95;;;;;;;24.27;50.34;98536.22;1685930;85;21028;-57
2021/06/16 05:11:15;;;;;;;6.58;3.40;;;;;;;24.21;51.63;98544.73;1684530;85;21506;-60
2021/06/16 05:13:42;;;;;;;7.75;3.60;;;;;;;24.35;49.82;98542.23;1646269;85;21004;-58
2021/06/16 05:16:10;;;;;;;6.53;3.00;;;;;;;24.43;50.58;98539.38;1675238;85;21105;-61
2021/06/16 05:18:42;;;;;;;9.58;3.27;;;;;;;24.61;50.37;98541.09;1668055;85;21056;-62
2021/06/16 05:21:08;;;;;;;5.10;3.30;;;;;;;24.84;50.37;98546.45;1709776;84;21009;-61
2021/06/16 05:23:35;;;;;;;9.23;3.35;;;;;;;25.05;48.08;98541.31;1709545;83;21071;-61
2021/06/16 05:26:03;;;;;;;4.65;3.42;;;;;;;25.12;48.22;98555.20;1675043;86;21065;-60
2021/06/16 05:28:31;;;;;;;11.08;3.60;;;;;;;25.30;47.75;98547.42;1689415;84;21059;-58
2021/06/16 05:31:02;;;;;;;7.70;2.98;;;;;;;25.46;47.05;98552.37;1691832;83;21510;-58
2021/06/16 05:33:30;;;;;;;4.58;3.02;;;;;;;25.61;45.84;98558.70;1673846;85;21051;-63
2021/06/16 05:35:57;;;;;;;3.62;2.98;;;;;;;25.77;44.86;98563.14;1686236;85;21572;-59
2021/06/16 05:38:26;;;;;;;9.58;3.40;;;;;;;25.77;44.92;98562.58;1665299;85;21053;-61
2021/06/16 05:40:53;;;;;;;3.45;3.10;;;;;;;25.85;45.58;98562.34;1685337;85;21025;-60
2021/06/16 05:43:22;;;;;;;8.83;3.30;;;;;;;26.05;45.13;98567.16;1707656;83;21032;-64
2021/06/16 05:45:51;;;;;;;8.05;3.00;;;;;;;26.25;43.68;98554.92;1730434;83;21522;-61
2021/06/16 05:48:19;;;;;;;7.08;2.98;;;;;;;26.35;42.66;98546.50;1710811;84;22235;-64
2021/06/16 05:50:47;;;;;;;8.80;3.05;;;;;;;26.22;42.46;98556.92;1715185;83;21562;-60
2021/06/16 05:53:16;;;;;;;6.08;3.20;;;;;;;26.20;42.86;98557.77;1701686;83;21034;-62
2021/06/16 05:55:45;;;;;;;7.45;3.60;;;;;;;26.29;42.59;98550.48;1711779;83;21075;-58
2021/06/16 05:58:13;;;;;;;4.37;3.22;;;;;;;26.41;43.83;98555.27;1716391;83;21019;-64
2021/06/16 06:00:40;;;;;;;6.33;3.05;;;;;;;26.68;42.95;98554.92;1721812;83;21095;-60
2021/06/16 06:03:08;;;;;;;4.35;3.22;;;;;;;26.93;42.61;98556.53;1672167;84;21195;-59
2021/06/16 06:05:36;;;;;;;6.80;3.08;;;;;;;26.97;42.02;98558.27;1697057;83;21071;-63
2021/06/16 06:08:07;;;;;;;7.10;3.12;;;;;;;27.09;41.82;98565.75;1726428;83;21177;-61
2021/06/16 06:10:35;;;;;;;4.85;2.95;;;;;;;27.09;41.01;98568.45;1710445;83;20987;-62
2021/06/16 06:13:03;;;;;;;7.58;2.90;;;;;;;27.09;40.19;98560.89;1719406;83;21027;-60
2021/06/16 06:15:31;;;;;;;7.20;3.00;;;;;;;27.13;40.24;98571.31;1720900;83;21876;-59
2021/06/16 06:17:59;;;;;;;2.77;2.58;;;;;;;27.16;40.62;98578.20;1717231;83;21028;-63
2021/06/16 06:20:27;;;;;;;5.90;2.80;;;;;;;27.09;40.01;98574.42;1713787;82;21497;-67
2021/06/16 06:22:56;;;;;;;6.42;3.02;;;;;;;27.02;40.21;98580.86;1704368;83;21007;-59
2021/06/16 06:25:24;;;;;;;5.08;3.05;;;;;;;27.02;40.63;98568.13;1700524;84;21032;-62
2021/06/16 06:27:52;;;;;;;4.17;2.98;;;;;;;27.09;40.79;98582.54;1710549;84;21055;-58
2021/06/16 06:30:19;;;;;;;6.30;2.70;;;;;;;27.22;40.30;98578.27;1707222;83;21060;-62
2021/06/16 06:32:47;;;;;;;4.75;3.00;;;;;;;27.29;40.75;98575.05;1701518;84;21118;-59
2021/06/16 06:35:15;;;;;;;7.90;3.05;;;;;;;27.43;41.57;98574.85;1701575;84;21083;-67
2021/06/16 06:37:44;;;;;;;4.72;2.85;;;;;;;27.60;40.78;98573.41;1708746;83;21493;-58
2021/06/16 06:40:12;;;;;;;3.87;2.70;;;;;;;27.61;39.68;98575.00;1710900;83;21448;-68
2021/06/16 06:42:40;;;;;;;7.58;3.20;;;;;;;27.60;40.32;98584.24;1705326;84;21041;-65
2021/06/16 06:45:21;;;;;;;5.60;2.90;;;;;;;27.65;39.95;98584.06;1702076;83;21071;-62
2021/06/16 06:47:57;;;;;;;3.47;2.53;;;;;;;27.66;40.28;98582.14;1661067;85;21053;-62
2021/06/16 06:50:26;;;;;;;3.80;2.85;;;;;;;27.55;38.97;98580.92;1686245;83;21064;-65
2021/06/16 06:52:55;;;;;;;6.12;2.67;;;;;;;27.50;39.67;98584.61;1704846;84;21099;-63
2021/06/16 06:55:24;;;;;;;6.97;2.87;;;;;;;27.56;39.96;98590.06;1694982;84;21056;-59
2021/06/16 06:57:52;;;;;;;5.58;2.60;;;;;;;27.56;39.68;98584.66;1678851;83;20984;-64
2021/06/16 07:00:20;;;;;;;6.03;2.80;;;;;;;27.67;39.46;98583.73;1666466;85;21099;-59
2021/06/16 07:02:48;;;;;;;3.15;2.67;;;;;;;27.68;39.44;98581.25;1680171;84;21585;-67
2021/06/16 07:05:15;;;;;;;5.87;2.85;;;;;;;27.66;39.76;98588.91;1647060;86;21079;-62
2021/06/16 07:07:44;;;;;;;4.55;2.80;;;;;;;27.69;40.48;98572.00;1673645;84;21069;-60
2021/06/16 07:10:13;;;;;;;4.25;2.65;;;;;;;27.74;39.75;98590.23;1680260;85;21427;-60
2021/06/16 07:12:40;;;;;;;5.67;2.62;;;;;;;27.67;39.95;98588.58;1648958;87;21038;-60
2021/06/16 07:15:10;;;;;;;3.27;2.90;;;;;;;27.64;39.75;98583.02;1633713;88;21018;-59
2021/06/16 07:17:46;;;;;;;5.45;2.80;;;;;;;27.52;39.62;98586.41;1673729;85;21585;-68
2021/06/16 07:20:18;;;;;;;5.17;2.85;;;;;;;27.48;40.14;98582.80;1680759;84;22197;-63
2021/06/16 07:22:46;;;;;;;4.20;2.90;;;;;;;27.51;39.08;98590.25;1672120;85;21236;-62
2021/06/16 07:25:15;;;;;;;5.65;2.80;;;;;;;27.43;39.44;98585.68;1674614;85;21058;-63
2021/06/16 07:27:45;;;;;;;5.10;2.98;;;;;;;27.37;39.25;98586.41;1665526;85;21255;-61
2021/06/16 07:30:14;;;;;;;4.25;2.90;;;;;;;27.37;39.04;98582.36;1622526;88;20999;-61
2021/06/16 07:32:41;;;;;;;8.95;2.83;;;;;;;27.29;39.36;98591.28;1639067;86;21543;-60
2021/06/16 07:35:10;;;;;;;4.37;2.85;;;;;;;27.19;40.42;98578.92;1648758;87;21024;-61
2021/06/16 07:37:38;;;;;;;6.83;2.58;;;;;;;27.16;40.34;98582.27;1635758;88;21059;-62
2021/06/16 07:40:10;;;;;;;3.30;2.83;;;;;;;27.25;40.53;98593.86;1684843;85;21123;-64
2021/06/16 07:42:38;;;;;;;6.42;2.80;;;;;;;27.16;39.66;98599.06;1682904;84;21089;-65
2021/06/16 07:45:09;;;;;;;6.85;2.65;;;;;;;26.97;39.56;98596.14;1661283;85;21310;-62
2021/06/16 07:47:38;;;;;;;6.78;3.42;;;;;;;26.90;41.24;98593.14;1651244;85;21158;-65
2021/06/16 07:50:07;;;;;;;7.60;3.12;;;;;;;26.74;43.09;98596.11;1670472;85;21039;-65
2021/06/16 07:52:35;;;;;;;6.47;3.60;;;;;;;26.40;44.64;98586.88;1648738;87;21563;-68
2021/06/16 07:55:03;;;;;;;5.80;3.30;;;;;;;26.08;45.08;98591.37;1655077;84;21036;-59
2021/06/16 07:57:31;;;;;;;6.03;3.65;;;;;;;25.81;46.09;98594.60;1649422;87;21485;-60
2021/06/16 07:59:59;;;;;;;6.10;3.35;;;;;;;25.60;47.17;98582.75;1649358;86;21061;-62
2021/06/16 08:02:29;;;;;;;5.97;3.50;;;;;;;25.64;48.85;98594.52;1653402;85;21148;-56
2021/06/16 08:04:57;;;;;;;11.05;3.55;;;;;;;25.71;47.91;98588.66;1690062;85;21059;-64
2021/06/16 08:07:25;;;;;;;5.80;3.40;;;;;;;25.65;47.74;98598.25;1690795;83;21562;-62
2021/06/16 08:09:56;;;;;;;4.58;3.37;;;;;;;25.49;48.20;98590.89;1715800;83;20988;-64
2021/06/16 08:12:24;;;;;;;7.67;3.67;;;;;;;25.34;47.92;98588.83;1717444;83;21008;-62
2021/06/16 08:14:52;;;;;;;4.40;3.20;;;;;;;25.12;48.62;98601.05;1718340;83;21467;-62
2021/06/16 08:17:19;;;;;;;10.45;4.10;;;;;;;24.99;46.30;98593.23;1718896;83;21039;-59
2021/06/16 08:19:48;;;;;;;6.62;2.90;;;;;;;25.00;49.49;98605.60;1713176;83;21023;-61
2021/06/16 08:22:18;;;;;;;5.85;3.12;;;;;;;25.01;49.07;98604.52;1710537;82;21614;-63
2021/06/16 08:24:46;;;;;;;6.83;3.40;;;;;;;24.99;47.26;98604.02;1710206;82;21063;-61
2021/06/16 08:27:13;;;;;;;5.00;3.40;;;;;;;24.96;47.50;98603.30;1721053;82;21012;-61
2021/06/16 08:29:42;;;;;;;6.92;3.27;;;;;;;24.88;47.92;98607.52;1714523;83;21060;-63
2021/06/16 08:32:10;;;;;;;3.50;3.20;;;;;;;24.79;47.60;98614.77;1717469;83;21582;-62
2021/06/16 08:34:38;;;;;;;5.92;3.37;;;;;;;24.71;47.87;98620.87;1711611;83;21506;-61
2021/06/16 08:37:05;;;;;;;6.10;3.83;;;;;;;24.64;48.96;98616.47;1722860;82;20987;-61
2021/06/16 08:39:33;;;;;;;5.70;3.65;;;;;;;24.64;50.38;98626.69;1718980;82;21448;-61
2021/06/16 08:42:02;;;;;;;7.03;4.10;;;;;;;24.65;50.76;98616.70;1713031;83;20980;-60
2021/06/16 08:44:31;;;;;;;7.53;4.10;;;;;;;24.69;47.79;98627.13;1713814;83;21007;-60
2021/06/16 08:46:59;;;;;;;6.67;3.58;;;;;;;24.61;47.20;98621.14;1701929;83;20984;-64
2021/06/16 08:49:27;;;;;;;6.17;4.20;;;;;;;24.54;48.26;98630.96;1710979;83;21034;-66
2021/06/16 08:51:55;;;;;;;9.28;3.80;;;;;;;24.53;47.53;98640.16;1709717;83;21474;-59
2021/06/16 08:54:24;;;;;;;5.70;4.00;;;;;;;24.51;48.31;98634.28;1706229;83;21519;-65
2021/06/16 08:56:51;;;;;;;4.42;3.62;;;;;;;24.48;48.24;98634.08;1704280;83;20977;-63
2021/06/16 08:59:19;;;;;;;7.17;4.08;;;;;;;24.48;48.88;98635.43;1701397;84;21032;-61
2021/06/16 09:01:47;;;;;;;8.93;3.65;;;;;;;24.50;47.89;98641.33;1708825;83;21087;-59
2021/06/16 09:04:50;;;;;;;6.85;3.85;;;;;;;24.52;48.22;98644.51;1707110;83;21222;-60
2021/06/16 09:07:24;;;;;;;8.53;3.80;;;;;;;24.55;49.76;98642.56;1701926;83;21068;-61
2021/06/16 09:10:15;;;;;;;5.50;3.58;;;;;;;24.74;47.84;98647.78;1700822;83;21523;-61
2021/06/16 09:12:53;;;;;;;10.43;4.03;;;;;;;24.87;47.83;98659.05;1711328;84;21032;-61
2021/06/16 09:15:23;;;;;;;5.42;3.90;;;;;;;24.96;47.79;98644.30;1713385;83;21020;-60
2021/06/16 09:18:08;;;;;;;5.58;3.87;;;;;;;25.02;46.52;98638.47;1720037;83;21124;-64
2021/06/16 09:20:42;;;;;;;5.45;3.58;;;;;;;25.13;46.29;98651.17;1713462;83;21523;-62
2021/06/16 09:23:21;;;;;;;5.58;3.52;;;;;;;25.22;45.24;98656.61;1701334;84;21048;-61
2021/06/16 09:26:13;;;;;;;7.35;3.52;;;;;;;25.29;46.01;98661.00;1701297;84;21064;-63
2021/06/16 09:28:49;;;;;;;5.62;3.80;;;;;;;25.36;45.90;98660.83;1711138;84;21076;-65
2021/06/16 09:31:17;;;;;;;8.63;4.42;;;;;;;25.32;46.54;98650.41;1711235;84;20996;-60
2021/06/16 09:33:44;;;;;;;7.80;3.75;;;;;;;25.36;47.60;98656.78;1710852;83;21023;-61
2021/06/16 09:36:20;;;;;;;6.62;3.40;;;;;;;25.42;47.62;98648.80;1701377;84;21033;-58
2021/06/16 09:38:49;;;;;;;6.75;3.62;;;;;;;25.35;47.42;98661.14;1711133;84;21083;-61
2021/06/16 09:41:22;;;;;;;4.70;3.35;;;;;;;25.27;46.20;98672.66;1711361;84;21471;-61
2021/06/16 09:43:56;;;;;;;9.38;3.62;;;;;;;25.26;46.15;98669.17;1701413;84;21048;-61
2021/06/16 09:46:24;;;;;;;4.42;3.00;;;;;;;25.27;46.29;98668.06;1718233;83;21464;-60
2021/06/16 09:48:52;;;;;;;10.30;3.72;;;;;;;25.31;46.86;98664.21;1720272;83;21555;-63
2021/06/16 09:51:29;;;;;;;6.60;3.42;;;;;;;25.35;45.44;98666.54;1720227;83;21071;-61
2021/06/16 09:54:21;;;;;;;7.75;3.25;;;;;;;25.37;45.77;98662.41;1720107;83;21480;-66
2021/06/16 09:56:53;;;;;;;10.08;3.58;;;;;;;25.43;46.41;98657.13;1697100;83;21028;-60
2021/06/16 09:59:44;;;;;;;7.60;3.52;;;;;;;25.48;46.01;98670.25;1715259;84;21075;-60
2021/06/16 10:02:23;;;;;;;;;;;;;;;25.46;46.10;98675.14;1707620;84;21044;-60
2021/06/16 10:05:01;;;;;;;7.37;3.55;;;;;;;25.30;45.15;98672.06;1704949;83;20134;-61
2021/06/16 10:07:33;;;;;;;5.05;3.58;;;;;;;25.08;46.02;98670.97;1704829;83;21091;-64
2021/06/16 10:10:10;;;;;;;5.58;3.50;;;;;;;24.88;46.16;98709.95;1652974;85;21026;-59
2021/06/16 10:12:41;;;;;;;9.20;3.37;;;;;;;24.60;47.11;98680.97;1684822;85;21502;-56
2021/06/16 10:15:14;;;;;;;6.87;3.15;;;;;;;24.49;46.95;98688.23;1682843;85;21094;-62
2021/06/16 10:17:43;;;;;;;5.42;3.12;;;;;;;24.53;46.24;98680.57;1724673;83;21027;-62
2021/06/16 10:20:13;;;;;;;5.20;3.02;;;;;;;24.63;46.78;98662.83;1714732;83;21048;-62
2021/06/16 10:22:41;;;;;;;5.92;3.20;;;;;;;24.76;46.11;98688.14;1718662;83;21044;-66
2021/06/16 10:25:10;;;;;;;4.60;3.35;;;;;;;24.80;46.24;98664.08;1720167;83;21512;-64
2021/06/16 10:27:46;;;;;;;4.70;3.30;;;;;;;24.73;45.67;98675.28;1720330;83;21057;-61
2021/06/16 10:30:16;;;;;;;9.25;3.30;;;;;;;24.62;46.55;98674.72;1714053;83;21011;-59
2021/06/16 10:32:46;;;;;;;6.28;3.50;;;;;;;24.66;45.67;98670.05;1697766;83;20974;-53
2021/06/16 10:35:34;;;;;;;5.55;3.27;;;;;;;24.60;47.29;98684.19;1696790;85;21479;-61
2021/06/16 10:38:20;;;;;;;9.03;2.80;;;;;;;24.55;45.70;98672.20;1694754;83;21590;-59
2021/06/16 10:40:57;;;;;;;7.60;2.92;;;;;;;24.58;42.41;98676.97;1696969;84;21022;-63
2021/06/16 10:43:23;;;;;;;5.37;2.90;;;;;;;24.58;41.95;98693.14;1685484;85;21510;-63
2021/06/16 10:45:57;;;;;;;5.12;2.77;;;;;;;24.58;42.87;98666.98;1700421;83;20981;-62
2021/06/16 10:48:55;;;;;;;4.53;3.10;;;;;;;24.64;42.84;98653.64;1718641;83;21519;-61
2021/06/16 10:51:35;;;;;;;4.65;2.75;;;;;;;24.70;43.62;98659.71;1703106;83;21001;-64
2021/06/16 10:54:13;;;;;;;5.78;2.95;;;;;;;24.74;43.85;98645.88;1702886;83;21051;-63
2021/06/16 10:57:01;;;;;;;4.12;2.60;;;;;;;24.82;42.84;98664.55;1701023;84;21114;-67
2021/06/16 10:59:50;;;;;;;6.95;2.80;;;;;;;24.86;44.40;98653.42;1716127;83;21061;-62
2021/06/16 11:02:25;;;;;;;5.60;2.50;;;;;;;24.92;41.59;98662.17;1688000;83;21122;-62
2021/06/16 11:04:52;;;;;;;6.45;2.77;;;;;;;24.85;40.28;98663.41;1705183;84;20976;-62
2021/06/16 11:07:36;;;;;;;2.80;2.50;;;;;;;24.81;41.43;98654.33;1712991;84;21523;-66
2021/06/16 11:10:07;;;;;;;5.00;2.45;;;;;;;24.82;41.52;98661.86;1705158;83;21530;-66
2021/06/16 11:12:42;;;;;;;4.95;2.33;;;;;;;24.82;41.82;98655.92;1697245;83;21019;-61
2021/06/16 11:15:30;;;;;;;4.75;2.70;;;;;;;24.87;42.43;98645.56;1697336;83;21067;-63
2021/06/16 11:17:59;;;;;;;4.67;2.42;;;;;;;24.93;42.28;98671.30;1692726;83;21088;-62
2021/06/16 11:20:39;;;;;;;3.72;2.85;;;;;;;24.99;42.07;98659.28;1704102;83;21382;-61
2021/06/16 11:23:06;;;;;;;6.03;2.60;;;;;;;25.08;43.01;98645.36;1665031;85;21092;-61
2021/06/16 11:25:40;;;;;;;6.58;2.77;;;;;;;25.23;43.28;98632.02;1702829;83;21547;-62
2021/06/16 11:28:18;;;;;;;3.22;2.60;;;;;;;25.34;41.77;98639.30;1690357;84;21087;-61
2021/06/16 11:31:05;;;;;;;3.42;2.60;;;;;;;25.29;42.39;98652.91;1688667;85;21027;-63
2021/06/16 11:33:35;;;;;;;3.85;2.50;;;;;;;25.24;42.83;98639.58;1687238;83;21143;-65
2021/06/16 11:36:11;;;;;;;4.22;2.87;;;;;;;25.27;43.75;98628.16;1681404;85;21116;-59
2021/06/16 11:38:58;;;;;;;3.67;2.83;;;;;;;25.35;44.79;98634.96;1703280;84;21043;-59
2021/06/16 11:41:28;;;;;;;6.08;2.85;;;;;;;25.39;42.92;98631.86;1699040;84;21048;-62
2021/06/16 11:44:11;;;;;;;6.30;2.70;;;;;;;25.39;43.48;98644.56;1695529;84;21028;-60
2021/06/16 11:46:43;;;;;;;4.47;2.67;;;;;;;25.22;43.30;98618.84;1694927;83;21035;-66
2021/06/16 11:49:18;;;;;;;3.42;3.10;;;;;;;25.09;43.83;98613.78;1695082;84;21019;-65
2021/06/16 11:51:57;;;;;;;5.75;2.85;;;;;;;25.13;43.06;98612.08;1693044;84;21075;-65
2021/06/16 11:54:34;;;;;;;6.62;2.90;;;;;;;25.21;44.29;98611.31;1691689;84;21361;-63
2021/06/16 11:57:13;;;;;;;9.85;3.27;;;;;;;25.30;42.78;98608.11;1690858;84;21075;-61
2021/06/16 11:59:51;;;;;;;8.20;3.08;;;;;;;25.34;43.21;98614.46;1691947;83;21561;-63
2021/06/16 12:02:24;;;;;;;10.68;3.17;;;;;;;25.37;42.60;98599.57;1685491;84;21501;-60
2021/06/16 12:05:07;;;;;;;5.42;2.92;;;;;;;25.42;42.84;98594.04;1700528;83;21075;-64
2021/06/16 12:07:48;;;;;;;7.45;2.75;;;;;;;25.50;43.66;98602.70;1720815;83;20996;-61
2021/06/16 12:10:24;;;;;;;3.95;2.65;;;;;;;25.62;42.65;98617.75;1691003;83;21060;-63
2021/06/16 12:12:57;;;;;;;6.03;2.80;;;;;;;25.66;42.58;98616.59;1675345;84;21067;-60
2021/06/16 12:15:27;;;;;;;5.53;3.17;;;;;;;25.65;42.55;98605.00;1680226;84;21464;-65
2021/06/16 12:18:01;;;;;;;4.25;3.08;;;;;;;25.61;43.31;98594.58;1703507;84;21068;-61
2021/06/16 12:20:41;;;;;;;7.03;3.12;;;;;;;25.57;43.91;98594.95;1703655;84;21044;-60
2021/06/16 12:23:35;;;;;;;4.97;2.75;;;;;;;25.59;45.51;98609.50;1691289;84;21017;-62
2021/06/16 12:26:11;;;;;;;5.83;2.70;;;;;;;25.64;43.05;98609.36;1675589;83;21459;-65
2021/06/16 12:28:41;;;;;;;9.33;3.10;;;;;;;25.66;43.15;98603.09;1720698;83;21499;-61
2021/06/16 12:31:27;;;;;;;6.58;3.08;;;;;;;25.65;42.72;98598.80;1720776;83;21490;-65
2021/06/16 12:36:31;;;;;;;5.95;2.83;;;;;;;25.66;42.99;98594.44;1689988;83;21019;-62
2021/06/16 12:39:23;;;;;;;4.67;3.10;;;;;;;25.68;41.99;98595.46;1656150;86;21594;-63
2021/06/16 12:41:54;;;;;;;5.08;2.60;;;;;;;25.62;41.73;98586.72;1655683;87;21063;-63
2021/06/16 12:44:34;;;;;;;11.08;2.98;;;;;;;25.53;42.08;98594.00;1656451;86;21063;-64
2021/06/16 12:47:08;;;;;;;8.08;3.10;;;;;;;25.43;42.71;98595.62;1675431;83;21034;-62
2021/06/16 12:49:46;;;;;;;4.97;2.55;;;;;;;25.28;43.93;98586.03;1684619;85;21072;-62
2021/06/16 12:52:33;;;;;;;9.08;3.58;;;;;;;25.07;44.19;98579.05;1685038;85;21492;-61
2021/06/16 12:55:15;;;;;;;10.32;4.28;;;;;;;24.94;46.07;98595.26;1685329;83;21065;-60
2021/06/16 12:57:52;;;;;;;7.00;4.40;;;;;;;24.88;50.14;98607.52;1656631;86;21093;-63
2021/06/16 13:00:19;;;;;;;13.50;4.65;;;;;;;24.85;50.93;98618.92;1674635;83;21111;-62
2021/06/16 13:02:46;;;;;;;9.65;4.47;;;;;;;24.84;51.21;98590.38;1661988;83;21021;-63
2021/06/16 13:05:15;;;;;;;5.80;4.30;;;;;;;24.82;50.29;98583.13;1690763;83;21075;-60
2021/06/16 13:07:50;;;;;;;7.72;4.75;;;;;;;24.82;52.56;98592.56;1705789;83;21044;-61
2021/06/16 13:10:29;;;;;;;13.18;5.03;;;;;;;24.87;52.88;98599.19;1710110;83;21603;-61
2021/06/16 13:13:00;;;;;;;8.75;4.78;;;;;;;24.87;52.85;98585.70;1707137;83;21079;-64
2021/06/16 13:15:46;;;;;;;8.60;4.20;;;;;;;24.82;52.04;98602.56;1715026;83;21213;-62
2021/06/16 13:18:24;;;;;;;7.70;4.20;;;;;;;24.63;52.06;98598.16;1688021;85;21008;-62
2021/06/16 13:21:01;;;;;;;10.20;4.25;;;;;;;24.42;52.84;98606.46;1687672;84;21005;-64
2021/06/16 13:23:32;;;;;;;9.83;4.90;;;;;;;24.34;54.16;98604.47;1707043;83;21087;-64
2021/06/16 13:26:08;;;;;;;9.20;4.22;;;;;;;24.38;54.16;98589.89;1709286;84;21052;-63
2021/06/16 13:28:39;;;;;;;8.83;4.42;;;;;;;24.39;54.22;98586.88;1677912;84;21079;-58
2021/06/16 13:31:21;;;;;;;8.05;4.58;;;;;;;24.38;51.89;98592.03;1687555;85;21216;-60
2021/06/16 13:33:50;;;;;;;7.60;5.00;;;;;;;24.38;52.40;98597.97;1697791;84;20999;-61
2021/06/16 13:36:24;;;;;;;8.88;4.53;;;;;;;24.38;53.74;98593.38;1697638;84;21170;-61
2021/06/16 13:38:54;;;;;;;6.15;4.20;;;;;;;24.52;54.33;98603.54;1700656;83;21146;-62
2021/06/16 13:41:25;;;;;;;9.68;5.30;;;;;;;24.67;51.44;98614.52;1701194;83;21004;-64
2021/06/16 13:43:54;;;;;;;8.78;4.65;;;;;;;24.74;51.02;98589.83;1698762;84;21008;-60
